sensor_id;sensor_type;location;lat;lon;timestamp;pressure;altitude;pressure_sealevel;temperature;humidity
6387;BME280;3226;42.162;24.756;2023-01-26T00:02:03;100539.78;;;0.75;87.70
6387;BME280;3226;42.162;24.756;2023-01-26T00:04:31;100545.31;;;0.61;86.48
6387;BME280;3226;42.162;24.756;2023-01-26T00:06:59;100545.13;;;0.69;85.67
6387;BME280;3226;42.162;24.756;2023-01-26T00:09:27;100534.28;;;0.56;85.41
6387;BME280;3226;42.162;24.756;2023-01-26T00:11:55;100528.13;;;0.62;84.65
6387;BME280;3226;42.162;24.756;2023-01-26T00:14:23;100520.16;;;0.69;84.33
6387;BME280;3226;42.162;24.756;2023-01-26T00:16:52;100510.03;;;0.63;86.55
6387;BME280;3226;42.162;24.756;2023-01-26T00:19:20;100503.41;;;0.54;88.81
6387;BME280;3226;42.162;24.756;2023-01-26T00:21:48;100496.69;;;0.47;90.12
6387;BME280;3226;42.162;24.756;2023-01-26T00:24:16;100496.97;;;0.38;91.97
6387;BME280;3226;42.162;24.756;2023-01-26T00:26:44;100496.06;;;0.39;91.77
6387;BME280;3226;42.162;24.756;2023-01-26T00:29:12;100490.00;;;0.41;90.54
6387;BME280;3226;42.162;24.756;2023-01-26T00:31:40;100491.00;;;0.36;90.95
6387;BME280;3226;42.162;24.756;2023-01-26T00:34:09;100483.97;;;0.42;90.45
6387;BME280;3226;42.162;24.756;2023-01-26T00:36:37;100477.41;;;0.31;88.69
6387;BME280;3226;42.162;24.756;2023-01-26T00:39:05;100487.44;;;0.40;87.48
6387;BME280;3226;42.162;24.756;2023-01-26T00:41:33;100491.44;;;0.52;86.95
6387;BME280;3226;42.162;24.756;2023-01-26T00:44:18;100489.53;;;0.59;87.02
6387;BME280;3226;42.162;24.756;2023-01-26T00:46:46;100489.66;;;0.54;87.19
6387;BME280;3226;42.162;24.756;2023-01-26T00:49:16;100487.16;;;0.51;87.50
6387;BME280;3226;42.162;24.756;2023-01-26T00:51:44;100495.34;;;0.65;87.00
6387;BME280;3226;42.162;24.756;2023-01-26T00:54:12;100493.81;;;0.60;87.58
6387;BME280;3226;42.162;24.756;2023-01-26T00:56:40;100488.88;;;0.50;87.63
6387;BME280;3226;42.162;24.756;2023-01-26T00:59:08;100484.84;;;0.41;89.24
6387;BME280;3226;42.162;24.756;2023-01-26T01:01:36;100478.75;;;0.44;89.76
6387;BME280;3226;42.162;24.756;2023-01-26T01:04:04;100482.22;;;0.43;91.33
6387;BME280;3226;42.162;24.756;2023-01-26T01:06:34;100480.50;;;0.43;90.87
6387;BME280;3226;42.162;24.756;2023-01-26T01:09:02;100489.13;;;0.41;90.98
6387;BME280;3226;42.162;24.756;2023-01-26T01:11:30;100470.41;;;0.34;90.69
6387;BME280;3226;42.162;24.756;2023-01-26T01:13:58;100462.22;;;0.20;91.99
6387;BME280;3226;42.162;24.756;2023-01-26T01:16:26;100467.59;;;0.43;92.08
6387;BME280;3226;42.162;24.756;2023-01-26T01:18:55;100462.16;;;0.54;92.74
6387;BME280;3226;42.162;24.756;2023-01-26T01:21:23;100469.00;;;0.55;92.89
6387;BME280;3226;42.162;24.756;2023-01-26T01:23:53;100456.69;;;0.65;92.45
6387;BME280;3226;42.162;24.756;2023-01-26T01:26:21;100462.22;;;0.51;93.13
6387;BME280;3226;42.162;24.756;2023-01-26T01:28:52;100458.28;;;0.39;92.91
6387;BME280;3226;42.162;24.756;2023-01-26T01:31:21;100466.56;;;0.49;92.33
6387;BME280;3226;42.162;24.756;2023-01-26T01:33:49;100460.91;;;0.68;92.19
6387;BME280;3226;42.162;24.756;2023-01-26T01:36:17;100450.81;;;0.60;90.90
6387;BME280;3226;42.162;24.756;2023-01-26T01:38:45;100447.22;;;0.66;90.58
6387;BME280;3226;42.162;24.756;2023-01-26T01:41:17;100445.34;;;0.71;88.76
6387;BME280;3226;42.162;24.756;2023-01-26T01:43:45;100444.13;;;0.54;89.67
6387;BME280;3226;42.162;24.756;2023-01-26T01:46:18;100443.75;;;0.67;89.97
6387;BME280;3226;42.162;24.756;2023-01-26T01:48:51;100445.97;;;0.79;88.90
6387;BME280;3226;42.162;24.756;2023-01-26T01:51:26;100444.09;;;0.84;87.31
6387;BME280;3226;42.162;24.756;2023-01-26T01:53:57;100440.91;;;0.76;87.49
6387;BME280;3226;42.162;24.756;2023-01-26T01:56:31;100432.16;;;0.82;86.62
6387;BME280;3226;42.162;24.756;2023-01-26T01:59:02;100429.88;;;0.71;85.34
6387;BME280;3226;42.162;24.756;2023-01-26T02:01:31;100431.66;;;0.69;84.49
6387;BME280;3226;42.162;24.756;2023-01-26T02:04:00;100418.41;;;0.51;86.35
6387;BME280;3226;42.162;24.756;2023-01-26T02:06:34;100416.09;;;0.42;87.54
6387;BME280;3226;42.162;24.756;2023-01-26T02:09:04;100398.31;;;0.33;89.20
6387;BME280;3226;42.162;24.756;2023-01-26T02:11:37;100412.97;;;0.31;91.11
6387;BME280;3226;42.162;24.756;2023-01-26T02:14:08;100412.19;;;0.28;93.33
6387;BME280;3226;42.162;24.756;2023-01-26T02:16:38;100408.75;;;0.28;94.70
6387;BME280;3226;42.162;24.756;2023-01-26T02:19:13;100402.69;;;0.29;94.64
6387;BME280;3226;42.162;24.756;2023-01-26T02:21:44;100402.41;;;0.40;94.78
6387;BME280;3226;42.162;24.756;2023-01-26T02:24:18;100400.41;;;0.50;94.43
6387;BME280;3226;42.162;24.756;2023-01-26T02:26:52;100401.56;;;0.69;93.82
6387;BME280;3226;42.162;24.756;2023-01-26T02:29:21;100380.19;;;0.66;93.22
6387;BME280;3226;42.162;24.756;2023-01-26T02:31:49;100399.72;;;0.75;93.37
6387;BME280;3226;42.162;24.756;2023-01-26T02:34:19;100403.03;;;0.78;92.73
6387;BME280;3226;42.162;24.756;2023-01-26T02:36:55;100400.06;;;0.62;92.63
6387;BME280;3226;42.162;24.756;2023-01-26T02:39:33;100396.69;;;0.60;92.57
6387;BME280;3226;42.162;24.756;2023-01-26T02:42:06;100390.50;;;0.66;92.19
6387;BME280;3226;42.162;24.756;2023-01-26T02:44:51;100382.00;;;0.62;89.88
6387;BME280;3226;42.162;24.756;2023-01-26T02:47:19;100390.69;;;0.60;90.29
6387;BME280;3226;42.162;24.756;2023-01-26T02:49:47;100374.94;;;0.69;89.77
6387;BME280;3226;42.162;24.756;2023-01-26T02:52:17;100387.75;;;0.72;89.50
6387;BME280;3226;42.162;24.756;2023-01-26T02:54:46;100360.56;;;0.62;88.10
6387;BME280;3226;42.162;24.756;2023-01-26T02:57:33;100377.34;;;0.75;88.41
6387;BME280;3226;42.162;24.756;2023-01-26T03:00:01;100384.78;;;0.84;87.96
6387;BME280;3226;42.162;24.756;2023-01-26T03:02:29;100369.56;;;0.77;87.89
6387;BME280;3226;42.162;24.756;2023-01-26T03:04:57;100373.78;;;0.79;88.59
6387;BME280;3226;42.162;24.756;2023-01-26T03:07:25;100370.06;;;0.60;89.03
6387;BME280;3226;42.162;24.756;2023-01-26T03:09:54;100374.75;;;0.75;88.98
6387;BME280;3226;42.162;24.756;2023-01-26T03:12:24;100372.66;;;0.88;87.59
6387;BME280;3226;42.162;24.756;2023-01-26T03:14:54;100371.94;;;0.83;87.73
6387;BME280;3226;42.162;24.756;2023-01-26T03:17:36;100359.56;;;0.66;87.22
6387;BME280;3226;42.162;24.756;2023-01-26T03:20:05;100337.34;;;0.62;86.29
6387;BME280;3226;42.162;24.756;2023-01-26T03:22:51;100353.97;;;0.51;86.57
6387;BME280;3226;42.162;24.756;2023-01-26T03:25:35;100355.81;;;0.48;86.86
6387;BME280;3226;42.162;24.756;2023-01-26T03:28:21;100349.19;;;0.67;85.77
6387;BME280;3226;42.162;24.756;2023-01-26T03:30:53;100344.78;;;0.42;87.84
6387;BME280;3226;42.162;24.756;2023-01-26T03:33:22;100331.53;;;0.25;87.35
6387;BME280;3226;42.162;24.756;2023-01-26T03:35:52;100344.00;;;0.69;85.68
6387;BME280;3226;42.162;24.756;2023-01-26T03:38:20;100338.28;;;0.59;85.55
6387;BME280;3226;42.162;24.756;2023-01-26T03:40:48;100326.59;;;0.47;87.43
6387;BME280;3226;42.162;24.756;2023-01-26T03:43:33;100308.47;;;0.50;87.75
6387;BME280;3226;42.162;24.756;2023-01-26T03:46:20;100324.22;;;0.69;86.41
6387;BME280;3226;42.162;24.756;2023-01-26T03:49:06;100327.59;;;0.71;86.04
6387;BME280;3226;42.162;24.756;2023-01-26T03:51:51;100320.41;;;0.81;84.54
6387;BME280;3226;42.162;24.756;2023-01-26T03:54:37;100308.03;;;0.64;85.54
6387;BME280;3226;42.162;24.756;2023-01-26T03:57:22;100300.41;;;0.61;85.99
6387;BME280;3226;42.162;24.756;2023-01-26T03:59:50;100305.03;;;0.78;86.67
6387;BME280;3226;42.162;24.756;2023-01-26T04:02:19;100295.44;;;0.55;88.01
6387;BME280;3226;42.162;24.756;2023-01-26T04:05:06;100290.09;;;0.61;88.53
6387;BME280;3226;42.162;24.756;2023-01-26T04:07:52;100296.03;;;0.63;88.40
6387;BME280;3226;42.162;24.756;2023-01-26T04:10:37;100290.47;;;0.77;87.64
6387;BME280;3226;42.162;24.756;2023-01-26T04:13:05;100287.56;;;0.60;88.57
6387;BME280;3226;42.162;24.756;2023-01-26T04:15:50;100294.72;;;0.78;89.03
6387;BME280;3226;42.162;24.756;2023-01-26T04:18:37;100274.09;;;0.78;88.39
6387;BME280;3226;42.162;24.756;2023-01-26T04:21:22;100299.56;;;0.88;87.27
6387;BME280;3226;42.162;24.756;2023-01-26T04:23:54;100291.13;;;0.84;86.85
6387;BME280;3226;42.162;24.756;2023-01-26T04:26:23;100282.19;;;0.94;86.92
6387;BME280;3226;42.162;24.756;2023-01-26T04:28:52;100277.63;;;0.76;86.65
6387;BME280;3226;42.162;24.756;2023-01-26T04:31:20;100271.91;;;0.66;87.74
6387;BME280;3226;42.162;24.756;2023-01-26T04:33:49;100274.41;;;0.69;87.78
6387;BME280;3226;42.162;24.756;2023-01-26T04:36:17;100265.53;;;0.78;87.30
6387;BME280;3226;42.162;24.756;2023-01-26T04:38:45;100267.81;;;0.87;87.19
6387;BME280;3226;42.162;24.756;2023-01-26T04:41:15;100264.53;;;1.09;84.38
6387;BME280;3226;42.162;24.756;2023-01-26T04:43:43;100261.69;;;1.17;83.00
6387;BME280;3226;42.162;24.756;2023-01-26T04:46:11;100262.84;;;1.08;83.58
6387;BME280;3226;42.162;24.756;2023-01-26T04:48:39;100264.13;;;0.94;84.89
6387;BME280;3226;42.162;24.756;2023-01-26T04:51:11;100260.44;;;1.01;83.38
6387;BME280;3226;42.162;24.756;2023-01-26T04:53:39;100268.59;;;1.16;82.41
6387;BME280;3226;42.162;24.756;2023-01-26T04:56:07;100260.28;;;0.81;84.01
6387;BME280;3226;42.162;24.756;2023-01-26T04:58:41;100263.09;;;0.73;84.60
6387;BME280;3226;42.162;24.756;2023-01-26T05:01:09;100271.53;;;1.05;83.34
6387;BME280;3226;42.162;24.756;2023-01-26T05:03:37;100264.69;;;1.04;83.52
6387;BME280;3226;42.162;24.756;2023-01-26T05:06:05;100268.03;;;0.79;84.05
6387;BME280;3226;42.162;24.756;2023-01-26T05:08:36;100270.59;;;1.08;83.41
6387;BME280;3226;42.162;24.756;2023-01-26T05:11:04;100269.53;;;1.13;82.40
6387;BME280;3226;42.162;24.756;2023-01-26T05:13:32;100253.78;;;0.96;82.15
6387;BME280;3226;42.162;24.756;2023-01-26T05:16:01;100270.84;;;1.00;83.23
6387;BME280;3226;42.162;24.756;2023-01-26T05:18:29;100265.69;;;1.00;83.81
6387;BME280;3226;42.162;24.756;2023-01-26T05:20:57;100261.16;;;0.80;85.03
6387;BME280;3226;42.162;24.756;2023-01-26T05:23:25;100262.88;;;0.79;85.29
6387;BME280;3226;42.162;24.756;2023-01-26T05:25:55;100267.41;;;0.73;85.67
6387;BME280;3226;42.162;24.756;2023-01-26T05:28:23;100266.47;;;0.75;86.22
6387;BME280;3226;42.162;24.756;2023-01-26T05:30:50;100262.44;;;0.66;86.15
6387;BME280;3226;42.162;24.756;2023-01-26T05:33:18;100253.38;;;0.54;85.27
6387;BME280;3226;42.162;24.756;2023-01-26T05:35:47;100246.78;;;0.44;84.87
6387;BME280;3226;42.162;24.756;2023-01-26T05:38:15;100248.06;;;0.59;85.18
6387;BME280;3226;42.162;24.756;2023-01-26T05:40:44;100237.53;;;0.65;86.00
6387;BME280;3226;42.162;24.756;2023-01-26T05:43:13;100243.06;;;0.54;86.09
6387;BME280;3226;42.162;24.756;2023-01-26T05:45:41;100242.63;;;0.40;86.71
6387;BME280;3226;42.162;24.756;2023-01-26T05:48:09;100235.28;;;0.27;87.36
6387;BME280;3226;42.162;24.756;2023-01-26T05:50:37;100242.69;;;0.38;87.25
6387;BME280;3226;42.162;24.756;2023-01-26T05:53:05;100236.66;;;0.39;88.52
6387;BME280;3226;42.162;24.756;2023-01-26T05:55:33;100240.19;;;0.35;89.37
6387;BME280;3226;42.162;24.756;2023-01-26T05:58:01;100241.06;;;0.34;90.03
6387;BME280;3226;42.162;24.756;2023-01-26T06:00:30;100237.78;;;0.31;88.74
6387;BME280;3226;42.162;24.756;2023-01-26T06:02:58;100247.75;;;0.41;87.45
6387;BME280;3226;42.162;24.756;2023-01-26T06:05:26;100246.78;;;0.44;87.56
6387;BME280;3226;42.162;24.756;2023-01-26T06:07:54;100239.56;;;0.28;88.99
6387;BME280;3226;42.162;24.756;2023-01-26T06:10:22;100237.97;;;0.51;87.54
6387;BME280;3226;42.162;24.756;2023-01-26T06:12:51;100229.84;;;0.37;88.14
6387;BME280;3226;42.162;24.756;2023-01-26T06:15:19;100227.16;;;0.40;90.94
6387;BME280;3226;42.162;24.756;2023-01-26T06:17:49;100224.47;;;0.45;92.89
6387;BME280;3226;42.162;24.756;2023-01-26T06:20:17;100233.81;;;0.47;92.99
6387;BME280;3226;42.162;24.756;2023-01-26T06:22:45;100224.19;;;0.52;92.46
6387;BME280;3226;42.162;24.756;2023-01-26T06:25:13;100226.88;;;0.49;94.20
6387;BME280;3226;42.162;24.756;2023-01-26T06:27:41;100233.13;;;0.42;94.01
6387;BME280;3226;42.162;24.756;2023-01-26T06:30:10;100231.78;;;0.57;94.30
6387;BME280;3226;42.162;24.756;2023-01-26T06:32:38;100235.03;;;0.64;92.25
6387;BME280;3226;42.162;24.756;2023-01-26T06:35:08;100232.25;;;0.70;91.75
6387;BME280;3226;42.162;24.756;2023-01-26T06:37:36;100238.69;;;0.83;91.30
6387;BME280;3226;42.162;24.756;2023-01-26T06:40:05;100229.66;;;0.97;91.04
6387;BME280;3226;42.162;24.756;2023-01-26T06:42:33;100197.97;;;0.66;92.98
6387;BME280;3226;42.162;24.756;2023-01-26T06:45:01;100226.59;;;0.85;92.24
6387;BME280;3226;42.162;24.756;2023-01-26T06:47:29;100221.25;;;0.65;93.15
6387;BME280;3226;42.162;24.756;2023-01-26T06:49:57;100214.25;;;0.68;92.18
6387;BME280;3226;42.162;24.756;2023-01-26T06:52:29;100220.34;;;0.66;91.44
6387;BME280;3226;42.162;24.756;2023-01-26T06:54:58;100217.56;;;0.45;92.15
6387;BME280;3226;42.162;24.756;2023-01-26T06:57:27;100192.66;;;0.46;92.74
6387;BME280;3226;42.162;24.756;2023-01-26T06:59:55;100210.66;;;0.17;93.70
6387;BME280;3226;42.162;24.756;2023-01-26T07:02:23;100209.22;;;0.37;93.45
6387;BME280;3226;42.162;24.756;2023-01-26T07:04:51;100209.44;;;0.57;93.19
6387;BME280;3226;42.162;24.756;2023-01-26T07:07:20;100211.97;;;0.86;91.74
6387;BME280;3226;42.162;24.756;2023-01-26T07:09:49;100198.19;;;0.87;91.68
6387;BME280;3226;42.162;24.756;2023-01-26T07:12:17;100197.09;;;0.67;93.14
6387;BME280;3226;42.162;24.756;2023-01-26T07:14:45;100187.94;;;0.59;93.31
6387;BME280;3226;42.162;24.756;2023-01-26T07:17:13;100187.88;;;0.60;93.30
6387;BME280;3226;42.162;24.756;2023-01-26T07:19:41;100183.78;;;0.54;92.88
6387;BME280;3226;42.162;24.756;2023-01-26T07:22:09;100181.09;;;0.57;93.69
6387;BME280;3226;42.162;24.756;2023-01-26T07:24:37;100179.88;;;0.41;93.68
6387;BME280;3226;42.162;24.756;2023-01-26T07:27:06;100176.53;;;0.39;93.54
6387;BME280;3226;42.162;24.756;2023-01-26T07:29:34;100178.00;;;0.46;93.91
6387;BME280;3226;42.162;24.756;2023-01-26T07:32:02;100157.13;;;0.55;93.88
6387;BME280;3226;42.162;24.756;2023-01-26T07:34:30;100158.28;;;0.72;93.16
6387;BME280;3226;42.162;24.756;2023-01-26T07:36:58;100167.97;;;0.91;91.44
6387;BME280;3226;42.162;24.756;2023-01-26T07:39:26;100166.56;;;1.06;90.77
6387;BME280;3226;42.162;24.756;2023-01-26T07:41:54;100158.00;;;1.05;90.00
6387;BME280;3226;42.162;24.756;2023-01-26T07:44:24;100160.00;;;1.22;89.26
6387;BME280;3226;42.162;24.756;2023-01-26T07:46:52;100157.81;;;1.35;89.77
6387;BME280;3226;42.162;24.756;2023-01-26T07:49:20;100167.88;;;0.94;90.39
6387;BME280;3226;42.162;24.756;2023-01-26T07:51:48;100173.34;;;1.10;90.02
6387;BME280;3226;42.162;24.756;2023-01-26T07:54:18;100159.06;;;0.99;90.57
6387;BME280;3226;42.162;24.756;2023-01-26T07:56:50;100169.75;;;1.14;90.45
6387;BME280;3226;42.162;24.756;2023-01-26T07:59:18;100160.22;;;1.16;91.56
6387;BME280;3226;42.162;24.756;2023-01-26T08:01:49;100166.97;;;1.20;89.93
6387;BME280;3226;42.162;24.756;2023-01-26T08:04:17;100163.53;;;0.69;91.44
6387;BME280;3226;42.162;24.756;2023-01-26T08:06:45;100159.72;;;0.54;93.87
6387;BME280;3226;42.162;24.756;2023-01-26T08:09:13;100137.84;;;0.66;93.92
6387;BME280;3226;42.162;24.756;2023-01-26T08:11:41;100160.06;;;0.70;94.81
6387;BME280;3226;42.162;24.756;2023-01-26T08:14:09;100165.53;;;0.61;95.01
6387;BME280;3226;42.162;24.756;2023-01-26T08:16:37;100171.44;;;0.37;97.25
6387;BME280;3226;42.162;24.756;2023-01-26T08:19:07;100164.72;;;0.32;98.47
6387;BME280;3226;42.162;24.756;2023-01-26T08:21:35;100160.56;;;0.27;98.44
6387;BME280;3226;42.162;24.756;2023-01-26T08:24:05;100158.88;;;0.26;99.11
6387;BME280;3226;42.162;24.756;2023-01-26T08:26:33;100159.16;;;0.17;99.49
6387;BME280;3226;42.162;24.756;2023-01-26T08:29:01;100143.63;;;0.20;100.00
6387;BME280;3226;42.162;24.756;2023-01-26T08:31:29;100159.78;;;0.25;100.00
6387;BME280;3226;42.162;24.756;2023-01-26T08:33:59;100153.13;;;0.45;100.00
6387;BME280;3226;42.162;24.756;2023-01-26T08:36:28;100155.78;;;0.69;100.00
6387;BME280;3226;42.162;24.756;2023-01-26T08:38:56;100151.78;;;0.85;100.00
6387;BME280;3226;42.162;24.756;2023-01-26T08:41:24;100146.00;;;1.04;98.89
6387;BME280;3226;42.162;24.756;2023-01-26T08:43:52;100152.44;;;0.67;99.41
6387;BME280;3226;42.162;24.756;2023-01-26T08:46:20;100141.78;;;0.51;99.87
6387;BME280;3226;42.162;24.756;2023-01-26T08:48:48;100131.91;;;0.64;100.00
6387;BME280;3226;42.162;24.756;2023-01-26T08:51:16;100139.31;;;0.73;100.00
6387;BME280;3226;42.162;24.756;2023-01-26T08:53:45;100139.22;;;0.51;100.00
6387;BME280;3226;42.162;24.756;2023-01-26T08:56:13;100129.66;;;0.54;100.00
6387;BME280;3226;42.162;24.756;2023-01-26T08:58:41;100132.50;;;0.45;100.00
6387;BME280;3226;42.162;24.756;2023-01-26T09:01:11;100132.91;;;0.60;100.00
6387;BME280;3226;42.162;24.756;2023-01-26T09:03:39;100128.69;;;0.57;100.00
6387;BME280;3226;42.162;24.756;2023-01-26T09:06:09;100114.78;;;0.36;100.00
6387;BME280;3226;42.162;24.756;2023-01-26T09:08:37;100131.50;;;0.49;100.00
6387;BME280;3226;42.162;24.756;2023-01-26T09:11:07;100129.69;;;0.26;100.00
6387;BME280;3226;42.162;24.756;2023-01-26T09:13:35;100109.34;;;0.18;100.00
6387;BME280;3226;42.162;24.756;2023-01-26T09:16:05;100133.75;;;0.33;100.00
6387;BME280;3226;42.162;24.756;2023-01-26T09:18:34;100123.06;;;0.46;100.00
6387;BME280;3226;42.162;24.756;2023-01-26T09:21:03;100125.06;;;0.37;100.00
6387;BME280;3226;42.162;24.756;2023-01-26T09:23:31;100125.44;;;0.52;100.00
6387;BME280;3226;42.162;24.756;2023-01-26T09:26:00;100121.13;;;0.78;100.00
6387;BME280;3226;42.162;24.756;2023-01-26T09:28:29;100102.56;;;0.68;100.00
6387;BME280;3226;42.162;24.756;2023-01-26T09:31:02;100112.41;;;0.56;100.00
6387;BME280;3226;42.162;24.756;2023-01-26T09:33:30;100104.16;;;0.45;100.00
6387;BME280;3226;42.162;24.756;2023-01-26T09:36:02;100083.28;;;0.27;100.00
6387;BME280;3226;42.162;24.756;2023-01-26T09:38:30;100087.47;;;0.30;100.00
6387;BME280;3226;42.162;24.756;2023-01-26T09:41:04;100087.91;;;0.16;100.00
6387;BME280;3226;42.162;24.756;2023-01-26T09:43:37;100086.88;;;0.22;100.00
6387;BME280;3226;42.162;24.756;2023-01-26T09:46:19;100086.34;;;0.12;100.00
6387;BME280;3226;42.162;24.756;2023-01-26T09:48:56;100073.13;;;0.23;100.00
6387;BME280;3226;42.162;24.756;2023-01-26T09:51:31;100069.41;;;0.32;100.00
6387;BME280;3226;42.162;24.756;2023-01-26T09:54:03;100055.16;;;0.21;100.00
6387;BME280;3226;42.162;24.756;2023-01-26T09:56:32;100060.47;;;0.42;100.00
6387;BME280;3226;42.162;24.756;2023-01-26T09:59:12;100038.41;;;0.08;100.00
6387;BME280;3226;42.162;24.756;2023-01-26T10:01:50;100051.25;;;0.09;100.00
6387;BME280;3226;42.162;24.756;2023-01-26T10:04:26;100041.06;;;0.05;100.00
6387;BME280;3226;42.162;24.756;2023-01-26T10:07:01;100040.38;;;-0.01;100.00
6387;BME280;3226;42.162;24.756;2023-01-26T10:09:31;100034.38;;;-0.01;100.00
6387;BME280;3226;42.162;24.756;2023-01-26T10:12:03;100024.69;;;0.33;100.00
6387;BME280;3226;42.162;24.756;2023-01-26T10:14:37;100004.44;;;0.22;100.00
6387;BME280;3226;42.162;24.756;2023-01-26T10:17:13;100031.47;;;0.35;100.00
6387;BME280;3226;42.162;24.756;2023-01-26T10:19:47;100022.63;;;0.17;100.00
6387;BME280;3226;42.162;24.756;2023-01-26T10:22:21;100024.91;;;0.26;100.00
6387;BME280;3226;42.162;24.756;2023-01-26T10:24:54;100018.75;;;0.31;100.00
6387;BME280;3226;42.162;24.756;2023-01-26T10:27:23;100019.59;;;0.31;100.00
6387;BME280;3226;42.162;24.756;2023-01-26T10:29:53;100015.41;;;0.28;100.00
6387;BME280;3226;42.162;24.756;2023-01-26T10:32:21;100013.84;;;0.48;100.00
6387;BME280;3226;42.162;24.756;2023-01-26T10:34:50;100005.00;;;0.32;100.00
6387;BME280;3226;42.162;24.756;2023-01-26T10:37:21;100002.31;;;0.35;100.00
6387;BME280;3226;42.162;24.756;2023-01-26T10:39:57;99990.78;;;0.45;100.00
6387;BME280;3226;42.162;24.756;2023-01-26T10:42:28;99981.22;;;0.49;100.00
6387;BME280;3226;42.162;24.756;2023-01-26T10:44:59;99970.84;;;0.25;100.00
6387;BME280;3226;42.162;24.756;2023-01-26T10:47:28;99965.59;;;0.28;100.00
6387;BME280;3226;42.162;24.756;2023-01-26T10:50:20;99961.34;;;0.27;100.00
6387;BME280;3226;42.162;24.756;2023-01-26T10:52:59;99956.09;;;0.54;100.00
6387;BME280;3226;42.162;24.756;2023-01-26T10:55:28;99957.94;;;0.50;100.00
6387;BME280;3226;42.162;24.756;2023-01-26T10:57:57;99953.69;;;0.49;100.00
6387;BME280;3226;42.162;24.756;2023-01-26T11:00:28;99949.72;;;0.64;100.00
6387;BME280;3226;42.162;24.756;2023-01-26T11:03:04;99946.47;;;0.59;100.00
6387;BME280;3226;42.162;24.756;2023-01-26T11:05:33;99957.13;;;0.74;100.00
6387;BME280;3226;42.162;24.756;2023-01-26T11:08:01;99838.66;;;0.24;100.00
6387;BME280;3226;42.162;24.756;2023-01-26T11:10:33;99893.34;;;0.79;100.00
6387;BME280;3226;42.162;24.756;2023-01-26T11:13:13;99923.16;;;1.08;100.00
6387;BME280;3226;42.162;24.756;2023-01-26T11:15:45;99913.09;;;1.02;100.00
6387;BME280;3226;42.162;24.756;2023-01-26T11:18:22;99919.56;;;1.12;100.00
6387;BME280;3226;42.162;24.756;2023-01-26T11:20:59;99910.91;;;1.13;100.00
6387;BME280;3226;42.162;24.756;2023-01-26T11:23:57;99907.03;;;1.03;100.00
6387;BME280;3226;42.162;24.756;2023-01-26T11:26:46;99885.78;;;0.96;100.00
6387;BME280;3226;42.162;24.756;2023-01-26T11:29:33;99895.69;;;1.07;100.00
6387;BME280;3226;42.162;24.756;2023-01-26T11:32:16;99888.22;;;0.77;100.00
6387;BME280;3226;42.162;24.756;2023-01-26T11:34:55;99882.63;;;0.90;100.00
6387;BME280;3226;42.162;24.756;2023-01-26T11:37:37;99873.75;;;0.97;100.00
6387;BME280;3226;42.162;24.756;2023-01-26T11:40:23;99863.88;;;0.84;100.00
6387;BME280;3226;42.162;24.756;2023-01-26T11:43:10;99856.38;;;0.78;100.00
6387;BME280;3226;42.162;24.756;2023-01-26T11:45:59;99839.66;;;1.11;100.00
6387;BME280;3226;42.162;24.756;2023-01-26T11:48:38;99848.56;;;1.24;100.00
6387;BME280;3226;42.162;24.756;2023-01-26T11:51:13;99838.56;;;1.17;100.00
6387;BME280;3226;42.162;24.756;2023-01-26T11:54:12;99824.75;;;1.18;100.00
6387;BME280;3226;42.162;24.756;2023-01-26T11:56:50;99835.41;;;1.10;100.00
6387;BME280;3226;42.162;24.756;2023-01-26T11:59:27;99828.22;;;0.96;100.00
6387;BME280;3226;42.162;24.756;2023-01-26T12:02:00;99822.03;;;1.00;100.00
6387;BME280;3226;42.162;24.756;2023-01-26T12:04:35;99828.50;;;1.10;100.00
6387;BME280;3226;42.162;24.756;2023-01-26T12:07:14;99819.38;;;1.24;100.00
6387;BME280;3226;42.162;24.756;2023-01-26T12:09:46;99813.75;;;1.14;100.00
6387;BME280;3226;42.162;24.756;2023-01-26T12:12:18;99809.53;;;1.11;100.00
6387;BME280;3226;42.162;24.756;2023-01-26T12:14:52;99800.75;;;1.15;100.00
6387;BME280;3226;42.162;24.756;2023-01-26T12:17:33;99803.03;;;1.23;100.00
6387;BME280;3226;42.162;24.756;2023-01-26T12:20:18;99812.06;;;1.13;100.00
6387;BME280;3226;42.162;24.756;2023-01-26T12:22:52;99803.97;;;1.21;100.00
6387;BME280;3226;42.162;24.756;2023-01-26T12:25:27;99805.28;;;1.10;100.00
6387;BME280;3226;42.162;24.756;2023-01-26T12:28:02;99801.78;;;0.91;100.00
6387;BME280;3226;42.162;24.756;2023-01-26T12:30:36;99795.09;;;1.07;100.00
6387;BME280;3226;42.162;24.756;2023-01-26T12:33:08;99793.81;;;1.38;100.00
6387;BME280;3226;42.162;24.756;2023-01-26T12:35:47;99790.50;;;1.35;100.00
6387;BME280;3226;42.162;24.756;2023-01-26T12:38:20;99781.72;;;0.97;100.00
6387;BME280;3226;42.162;24.756;2023-01-26T12:40:59;99770.94;;;0.88;100.00
6387;BME280;3226;42.162;24.756;2023-01-26T12:43:38;99799.28;;;1.10;100.00
6387;BME280;3226;42.162;24.756;2023-01-26T12:46:09;99787.91;;;0.93;100.00
6387;BME280;3226;42.162;24.756;2023-01-26T12:48:41;99786.53;;;1.07;100.00
6387;BME280;3226;42.162;24.756;2023-01-26T12:51:16;99765.13;;;0.82;100.00
6387;BME280;3226;42.162;24.756;2023-01-26T12:53:51;99777.34;;;0.99;100.00
6387;BME280;3226;42.162;24.756;2023-01-26T12:56:25;99780.47;;;0.85;100.00
6387;BME280;3226;42.162;24.756;2023-01-26T12:58:56;99780.44;;;0.65;100.00
6387;BME280;3226;42.162;24.756;2023-01-26T13:01:26;99773.22;;;0.73;100.00
6387;BME280;3226;42.162;24.756;2023-01-26T13:04:08;99771.84;;;0.64;100.00
6387;BME280;3226;42.162;24.756;2023-01-26T13:06:38;99772.75;;;0.63;100.00
6387;BME280;3226;42.162;24.756;2023-01-26T13:09:21;99771.38;;;0.77;100.00
6387;BME280;3226;42.162;24.756;2023-01-26T13:11:52;99769.03;;;0.70;100.00
6387;BME280;3226;42.162;24.756;2023-01-26T13:14:37;99758.00;;;0.67;100.00
6387;BME280;3226;42.162;24.756;2023-01-26T13:17:45;99767.06;;;0.77;100.00
6387;BME280;3226;42.162;24.756;2023-01-26T13:20:25;99745.91;;;0.69;100.00
6387;BME280;3226;42.162;24.756;2023-01-26T13:22:55;99754.41;;;0.71;100.00
6387;BME280;3226;42.162;24.756;2023-01-26T13:25:28;99741.00;;;0.63;100.00
6387;BME280;3226;42.162;24.756;2023-01-26T13:27:59;99747.34;;;0.54;100.00
6387;BME280;3226;42.162;24.756;2023-01-26T13:30:45;99744.88;;;0.73;100.00
6387;BME280;3226;42.162;24.756;2023-01-26T13:33:16;99741.03;;;0.61;100.00
6387;BME280;3226;42.162;24.756;2023-01-26T13:35:47;99739.66;;;0.75;100.00